Terminal Aerodrome Forecast
Issued by NWS Green Bay, WI

Home | Current Version | Previous Version | Graphics & Text | Print | Product List | Glossary On
Versions: 1 2 3 4 5 6 7 8 9 10 11 12 13 14 15 16 17 18 19 20 21 22 23 24 25 26 27 28 29 30 31 32 33 34 35 36
000
FTUS43 KGRB 210908 AAB
TAFGRB
TAF AMD
KGRB 210908Z 2109/2206 21009G15KT P6SM SCT015 BKN060
      TEMPO 2109/2111 SCT005 BKN010
     FM211100 26010G17KT P6SM SCT015 BKN020
     FM211500 27007G14KT P6SM SCT012 BKN250
     FM211900 22008KT P6SM FEW250=

USA.gov is the U.S. government's official web portal to all federal, state and local government web resources and services.